createdAt,value
2017-12-16T00:01:08.838Z,38.88
2017-12-16T00:03:36.390Z,41.00
2017-12-16T00:06:03.940Z,38.30
2017-12-16T00:08:31.474Z,41.53
2017-12-16T00:10:59.011Z,39.23
2017-12-16T00:13:26.550Z,37.17
2017-12-16T00:15:54.085Z,35.67
2017-12-16T00:18:21.614Z,38.60
2017-12-16T00:20:49.147Z,39.73
2017-12-16T00:23:16.678Z,41.77
2017-12-16T00:25:44.232Z,42.93
2017-12-16T00:28:11.786Z,38.67
2017-12-16T00:30:39.337Z,40.37
2017-12-16T00:33:06.878Z,42.83
2017-12-16T00:35:34.428Z,39.83
2017-12-16T00:38:01.973Z,42.10
2017-12-16T00:40:29.511Z,44.07
2017-12-16T00:42:57.064Z,47.53
2017-12-16T00:45:24.594Z,42.80
2017-12-16T00:47:52.127Z,41.13
2017-12-16T00:50:19.662Z,39.33
2017-12-16T00:52:47.205Z,42.00
2017-12-16T00:55:14.749Z,43.83
2017-12-16T00:57:42.287Z,44.33
2017-12-16T01:00:09.826Z,47.10
2017-12-16T01:02:37.365Z,46.77
2017-12-16T01:05:04.901Z,39.60
2017-12-16T01:07:32.445Z,39.03
2017-12-16T01:09:59.986Z,44.63
2017-12-16T01:12:27.550Z,41.07
2017-12-16T01:14:55.098Z,46.67
2017-12-16T01:17:22.643Z,40.97
2017-12-16T01:19:50.189Z,39.40
2017-12-16T01:22:17.734Z,44.97
2017-12-16T01:24:45.265Z,45.07
2017-12-16T01:27:12.809Z,46.17
2017-12-16T01:29:40.341Z,42.77
2017-12-16T01:32:07.891Z,46.37
2017-12-16T01:37:48.981Z,41.60
2017-12-16T01:40:16.530Z,40.87
2017-12-16T01:42:44.060Z,44.23
2017-12-16T01:45:11.611Z,43.03
2017-12-16T01:47:39.158Z,43.03
2017-12-16T01:50:06.740Z,50.10
2017-12-16T01:52:34.292Z,45.90
2017-12-16T01:55:01.830Z,40.93
2017-12-16T01:57:29.374Z,45.03
2017-12-16T01:59:56.921Z,45.10
2017-12-16T02:02:24.470Z,45.73
2017-12-16T02:04:52.033Z,43.53
2017-12-16T02:07:19.570Z,47.13
2017-12-16T02:09:47.110Z,46.07
2017-12-16T02:12:14.658Z,43.20
2017-12-16T02:14:42.189Z,45.50
2017-12-16T02:17:09.734Z,39.17
2017-12-16T02:19:37.274Z,43.93
2017-12-16T02:22:04.814Z,46.57
2017-12-16T02:24:32.357Z,42.77
2017-12-16T02:26:59.890Z,46.27
2017-12-16T02:29:27.434Z,47.70
2017-12-16T02:31:54.978Z,45.93
2017-12-16T02:34:22.527Z,40.97
2017-12-16T02:36:50.073Z,41.67
2017-12-16T02:39:17.605Z,41.87
2017-12-16T02:41:45.143Z,39.87
2017-12-16T02:44:12.674Z,42.53
2017-12-16T02:46:40.225Z,39.83
2017-12-16T02:49:07.753Z,44.30
2017-12-16T02:51:35.299Z,44.53
2017-12-16T02:54:02.839Z,39.33
2017-12-16T02:56:30.390Z,44.70
2017-12-16T02:58:57.943Z,44.20
2017-12-16T03:01:25.482Z,42.30
2017-12-16T03:03:53.014Z,38.60
2017-12-16T03:06:20.565Z,45.93
2017-12-16T03:08:48.106Z,41.17
2017-12-16T03:11:15.646Z,40.07
2017-12-16T03:13:43.181Z,44.93
2017-12-16T03:16:10.710Z,40.57
2017-12-16T03:18:38.254Z,44.73
2017-12-16T03:21:05.797Z,43.40
2017-12-16T03:23:33.351Z,42.43
2017-12-16T03:26:00.899Z,43.20
2017-12-16T03:28:28.438Z,44.00
2017-12-16T03:30:55.980Z,43.37
2017-12-16T03:33:23.522Z,44.80
2017-12-16T03:35:51.053Z,40.47
2017-12-16T03:38:18.598Z,43.00
2017-12-16T03:40:46.121Z,41.93
2017-12-16T03:43:13.662Z,41.60
2017-12-16T03:45:41.198Z,43.43
2017-12-16T03:48:08.754Z,44.97
2017-12-16T03:50:36.301Z,48.03
2017-12-16T03:53:03.841Z,47.50
2017-12-16T03:55:31.377Z,45.17
2017-12-16T03:57:58.917Z,46.80
2017-12-16T04:00:26.458Z,47.53
2017-12-16T04:02:54.003Z,43.83
2017-12-16T04:05:21.595Z,46.27
2017-12-16T04:07:49.134Z,44.70
2017-12-16T04:10:16.693Z,47.43
2017-12-16T04:12:44.247Z,46.17
2017-12-16T04:15:11.807Z,50.53
2017-12-16T04:17:39.354Z,45.97
2017-12-16T04:20:06.886Z,45.57
2017-12-16T04:22:34.431Z,43.83
2017-12-16T04:25:01.982Z,43.83
2017-12-16T04:27:29.531Z,44.30
2017-12-16T04:29:57.089Z,48.23
2017-12-16T04:32:24.634Z,44.67
2017-12-16T04:34:52.182Z,46.13
2017-12-16T04:37:19.735Z,39.03
2017-12-16T04:39:47.291Z,44.07
2017-12-16T04:42:14.822Z,41.57
2017-12-16T04:44:42.358Z,44.97
2017-12-16T04:47:09.912Z,44.07
2017-12-16T04:49:37.470Z,46.97
2017-12-16T04:52:05.028Z,44.47
2017-12-16T04:54:32.562Z,49.23
2017-12-16T04:57:00.120Z,46.57
2017-12-16T04:59:27.661Z,48.43
2017-12-16T05:01:55.218Z,47.87
2017-12-16T05:04:22.762Z,44.20
2017-12-16T05:06:50.308Z,45.80
2017-12-16T05:09:17.850Z,45.67
2017-12-16T05:11:45.404Z,46.60
2017-12-16T05:14:12.951Z,46.10
2017-12-16T05:16:40.503Z,43.23
2017-12-16T05:19:08.054Z,49.00
2017-12-16T05:21:35.598Z,49.17
2017-12-16T05:24:03.149Z,47.33
2017-12-16T05:26:30.691Z,46.10
2017-12-16T05:28:58.226Z,44.47
2017-12-16T05:31:25.763Z,44.47
2017-12-16T05:33:53.311Z,48.00
2017-12-16T05:36:20.850Z,46.60
2017-12-16T05:38:48.399Z,43.83
2017-12-16T05:41:15.936Z,54.70
2017-12-16T05:43:43.480Z,43.70
2017-12-16T05:46:11.031Z,44.17
2017-12-16T05:48:38.565Z,41.37
2017-12-16T05:51:06.106Z,45.43
2017-12-16T05:53:33.647Z,41.97
2017-12-16T05:56:01.185Z,46.57
2017-12-16T05:58:28.726Z,44.60
2017-12-16T06:00:56.275Z,47.73
2017-12-16T06:03:23.832Z,48.37
2017-12-16T06:05:51.391Z,49.10
2017-12-16T06:08:18.943Z,50.90
2017-12-16T06:10:46.495Z,45.90
2017-12-16T06:13:14.039Z,49.30
2017-12-16T06:15:41.582Z,42.03
2017-12-16T06:18:09.131Z,48.47
2017-12-16T06:20:36.673Z,52.07
2017-12-16T06:23:04.202Z,46.73
2017-12-16T06:25:31.730Z,44.17
2017-12-16T06:27:59.278Z,47.97
2017-12-16T06:30:26.812Z,45.23
2017-12-16T06:32:54.346Z,47.20
2017-12-16T06:35:21.919Z,48.47
2017-12-16T06:37:49.466Z,45.77
2017-12-16T06:40:17.015Z,46.27
2017-12-16T06:42:44.557Z,44.87
2017-12-16T06:45:12.081Z,40.63
2017-12-16T06:47:39.624Z,48.53
2017-12-16T06:50:07.161Z,44.37
2017-12-16T06:52:34.690Z,42.77
2017-12-16T06:55:02.225Z,42.10
2017-12-16T06:57:29.776Z,41.83
2017-12-16T06:59:57.320Z,41.60
2017-12-16T07:02:24.862Z,42.40
2017-12-16T07:04:52.420Z,40.00
2017-12-16T07:07:19.979Z,43.13
2017-12-16T07:09:47.534Z,52.03
2017-12-16T07:12:15.067Z,40.73
2017-12-16T07:14:42.629Z,48.80
2017-12-16T07:17:10.169Z,43.87
2017-12-16T07:19:37.698Z,45.50
2017-12-16T07:22:05.281Z,53.50
2017-12-16T07:24:32.830Z,47.30
2017-12-16T07:27:00.377Z,44.80
2017-12-16T07:29:27.910Z,49.97
2017-12-16T07:31:55.457Z,43.40
2017-12-16T07:34:23.002Z,44.20
2017-12-16T07:36:50.542Z,47.93
2017-12-16T07:39:18.094Z,43.67
2017-12-16T07:41:45.642Z,43.37
2017-12-16T07:44:13.191Z,43.87
2017-12-16T07:46:40.742Z,49.23
2017-12-16T07:49:08.301Z,41.70
2017-12-16T07:51:35.865Z,47.10
2017-12-16T07:54:03.411Z,51.07
2017-12-16T07:56:30.954Z,43.07
2017-12-16T07:58:58.511Z,45.80
2017-12-16T08:01:26.062Z,41.60
2017-12-16T08:03:53.598Z,41.13
2017-12-16T08:06:21.143Z,49.27
2017-12-16T08:08:48.691Z,44.30
2017-12-16T08:11:16.235Z,46.80
2017-12-16T08:13:43.787Z,49.63
2017-12-16T08:16:11.339Z,44.87
2017-12-16T08:18:38.900Z,43.83
2017-12-16T08:21:06.447Z,55.50
2017-12-16T08:23:33.990Z,43.53
2017-12-16T08:26:01.529Z,42.87
2017-12-16T08:28:29.087Z,50.53
2017-12-16T08:30:56.628Z,45.77
2017-12-16T08:33:24.186Z,47.87
2017-12-16T08:35:51.735Z,46.57
2017-12-16T08:38:19.291Z,43.10
2017-12-16T08:40:46.843Z,42.17
2017-12-16T08:43:14.405Z,46.43
2017-12-16T08:45:41.951Z,42.77
2017-12-16T08:48:09.499Z,41.47
2017-12-16T08:50:37.051Z,45.07
2017-12-16T08:53:04.597Z,44.47
2017-12-16T08:55:32.154Z,41.50
2017-12-16T08:57:59.732Z,43.27
2017-12-16T09:00:27.289Z,42.33
2017-12-16T09:02:54.850Z,41.73
2017-12-16T09:05:22.390Z,38.00
2017-12-16T09:07:49.946Z,39.73
2017-12-16T09:10:17.815Z,41.90
2017-12-16T09:12:45.748Z,37.90
2017-12-16T09:15:13.299Z,36.37
2017-12-16T09:17:40.830Z,36.50
2017-12-16T09:20:08.594Z,39.33
2017-12-16T09:22:36.142Z,40.63
2017-12-16T09:25:03.707Z,40.50
2017-12-16T09:27:31.248Z,42.70
2017-12-16T09:29:58.791Z,41.13
2017-12-16T09:32:26.325Z,36.80
2017-12-16T09:34:53.875Z,40.83
2017-12-16T09:37:21.436Z,39.03
2017-12-16T09:39:48.989Z,36.90
2017-12-16T09:42:16.539Z,34.93
2017-12-16T09:44:44.082Z,36.13
2017-12-16T09:47:11.614Z,35.10
2017-12-16T09:49:39.155Z,36.40
2017-12-16T09:52:06.760Z,34.63
2017-12-16T09:54:36.500Z,36.67
2017-12-16T09:57:06.223Z,35.70
2017-12-16T09:59:33.945Z,38.30
2017-12-16T10:02:01.564Z,38.87
2017-12-16T10:04:29.642Z,40.17
2017-12-16T10:06:57.189Z,39.93
2017-12-16T10:09:24.749Z,38.43
2017-12-16T10:11:52.273Z,41.47
2017-12-16T10:14:19.806Z,42.80
2017-12-16T10:16:47.333Z,43.50
2017-12-16T10:19:14.863Z,45.57
2017-12-16T10:21:42.393Z,40.87
2017-12-16T10:24:09.911Z,44.30
2017-12-16T10:26:37.445Z,47.93
2017-12-16T10:29:04.982Z,44.47
2017-12-16T10:31:32.620Z,48.10
2017-12-16T10:34:00.144Z,51.27
2017-12-16T10:36:27.676Z,51.90
2017-12-16T10:38:55.202Z,50.67
2017-12-16T10:41:22.726Z,49.97
2017-12-16T10:43:50.271Z,50.87
2017-12-16T10:46:17.798Z,53.10
2017-12-16T10:48:45.324Z,49.20
2017-12-16T10:51:12.882Z,53.87
2017-12-16T10:53:40.411Z,53.53
2017-12-16T10:56:07.932Z,51.10
2017-12-16T10:58:35.511Z,46.50
2017-12-16T11:01:03.050Z,55.05
2017-12-16T11:03:30.574Z,53.70
2017-12-16T11:05:58.107Z,52.27
2017-12-16T11:08:25.627Z,50.13
2017-12-16T11:10:53.152Z,51.73
2017-12-16T11:13:20.678Z,52.17
2017-12-16T11:15:48.250Z,52.73
2017-12-16T11:18:15.825Z,47.03
2017-12-16T11:20:43.364Z,45.97
2017-12-16T11:23:10.906Z,46.43
2017-12-16T11:25:38.462Z,46.73
2017-12-16T11:28:05.988Z,50.43
2017-12-16T11:30:33.502Z,49.60
2017-12-16T11:33:01.032Z,45.57
2017-12-16T11:35:29.410Z,48.83
2017-12-16T11:37:56.938Z,41.27
2017-12-16T11:40:24.459Z,41.13
2017-12-16T11:42:51.987Z,39.63
2017-12-16T11:45:20.394Z,37.13
2017-12-16T11:47:48.211Z,40.13
2017-12-16T11:50:15.750Z,38.10
2017-12-16T11:52:43.278Z,38.40
2017-12-16T11:55:10.810Z,36.97
2017-12-16T11:57:38.337Z,40.53
2017-12-16T12:00:06.779Z,40.20
2017-12-16T12:02:34.306Z,34.47
2017-12-16T12:05:01.833Z,36.53
2017-12-16T12:07:29.359Z,37.53
2017-12-16T12:09:57.777Z,39.47
2017-12-16T12:12:25.847Z,34.97
2017-12-16T12:14:53.365Z,37.23
2017-12-16T12:17:20.881Z,41.30
2017-12-16T12:19:48.407Z,36.10
2017-12-16T12:22:15.947Z,39.07
2017-12-16T12:24:43.468Z,38.57
2017-12-16T12:27:10.985Z,42.63
2017-12-16T12:29:38.504Z,38.30
2017-12-16T12:32:06.017Z,38.93
2017-12-16T12:34:33.534Z,38.00
2017-12-16T12:37:01.061Z,36.80
2017-12-16T12:39:28.589Z,38.00
2017-12-16T12:41:56.109Z,42.13
2017-12-16T12:44:23.642Z,38.20
2017-12-16T12:46:51.166Z,40.83
2017-12-16T12:49:18.685Z,37.20
2017-12-16T12:51:46.251Z,41.00
2017-12-16T12:54:13.782Z,42.77
2017-12-16T12:56:41.305Z,50.27
2017-12-16T12:59:08.865Z,39.30
2017-12-16T13:01:36.412Z,41.57
2017-12-16T13:04:03.970Z,41.60
2017-12-16T13:06:31.500Z,44.73
2017-12-16T13:08:59.026Z,50.30
2017-12-16T13:11:26.548Z,46.67
2017-12-16T13:13:54.070Z,47.10
2017-12-16T13:16:21.593Z,46.17
2017-12-16T13:18:49.109Z,45.90
2017-12-16T13:21:16.645Z,49.33
2017-12-16T13:23:44.201Z,43.70
2017-12-16T13:26:11.756Z,46.90
2017-12-16T13:28:39.277Z,47.07
2017-12-16T13:31:06.798Z,43.23
2017-12-16T13:33:34.317Z,44.27
2017-12-16T13:36:01.834Z,45.37
2017-12-16T13:38:29.349Z,44.77
2017-12-16T13:40:56.874Z,48.43
2017-12-16T13:43:24.417Z,45.17
2017-12-16T13:45:51.963Z,48.73
2017-12-16T13:48:19.499Z,48.40
2017-12-16T13:50:47.027Z,45.60
2017-12-16T13:53:14.541Z,49.37
2017-12-16T13:55:42.058Z,49.47
2017-12-16T13:58:10.168Z,52.63
2017-12-16T14:00:37.702Z,46.03
2017-12-16T14:03:05.597Z,49.47
2017-12-16T14:05:33.126Z,49.33
2017-12-16T14:08:00.667Z,45.27
2017-12-16T14:10:28.225Z,47.67
2017-12-16T14:12:55.779Z,49.13
2017-12-16T14:15:23.304Z,47.90
2017-12-16T14:17:50.825Z,45.33
2017-12-16T14:20:18.357Z,47.57
2017-12-16T14:22:45.876Z,49.50
2017-12-16T14:25:13.933Z,43.70
2017-12-16T14:27:41.456Z,44.83
2017-12-16T14:30:08.990Z,44.33
2017-12-16T14:32:36.530Z,41.67
2017-12-16T14:35:04.838Z,43.70
2017-12-16T14:37:32.362Z,43.20
2017-12-16T14:39:59.885Z,38.40
2017-12-16T14:42:27.417Z,41.47
2017-12-16T14:44:54.990Z,44.37
2017-12-16T14:47:22.509Z,39.47
2017-12-16T14:49:50.047Z,38.73
2017-12-16T14:52:17.686Z,43.17
2017-12-16T16:16:42.165Z,42.13
2017-12-16T16:19:09.682Z,41.17
2017-12-16T16:21:38.130Z,41.87
2017-12-16T16:24:06.105Z,42.67
2017-12-16T16:26:33.629Z,35.17
2017-12-16T16:29:01.154Z,39.10
2017-12-16T16:31:28.675Z,37.83
2017-12-16T16:33:56.208Z,38.27
2017-12-16T16:36:23.734Z,35.67
2017-12-16T16:38:51.252Z,33.70
2017-12-16T16:41:18.778Z,35.50
2017-12-16T16:43:46.311Z,35.93
2017-12-16T16:46:13.849Z,36.30
2017-12-16T16:48:41.369Z,32.03
2017-12-16T16:51:08.885Z,30.23
2017-12-16T16:53:36.409Z,37.73
2017-12-16T16:56:03.939Z,35.33
2017-12-16T16:58:31.479Z,32.10
2017-12-16T17:00:58.992Z,36.57
2017-12-16T17:03:26.539Z,34.33
2017-12-16T17:05:54.571Z,34.73
2017-12-16T17:08:22.112Z,35.43
2017-12-16T17:10:49.669Z,32.10
2017-12-16T17:13:17.220Z,37.80
2017-12-16T17:15:44.784Z,32.27
2017-12-16T17:18:12.334Z,34.00
2017-12-16T17:20:39.865Z,33.50
2017-12-16T17:23:07.394Z,33.43
2017-12-16T17:25:35.258Z,40.97
2017-12-16T17:28:02.816Z,31.13
2017-12-16T17:30:30.382Z,37.60
2017-12-16T17:32:57.935Z,28.57
2017-12-16T17:35:25.465Z,35.67
2017-12-16T17:37:52.990Z,35.47
2017-12-16T17:40:20.520Z,25.63
2017-12-16T17:42:48.039Z,31.53
2017-12-16T17:45:15.599Z,29.70
2017-12-16T17:47:43.167Z,31.73
2017-12-16T17:50:10.698Z,30.23
2017-12-16T17:52:38.222Z,29.53
2017-12-16T17:55:05.739Z,33.40
2017-12-16T17:57:33.261Z,32.07
2017-12-16T18:00:00.842Z,29.13
2017-12-16T18:02:28.413Z,30.33
2017-12-16T18:04:55.955Z,31.70
2017-12-16T18:07:23.485Z,29.50
2017-12-16T18:09:51.035Z,26.63
2017-12-16T18:12:18.574Z,27.10
2017-12-16T18:14:46.115Z,22.43
2017-12-16T18:17:13.646Z,27.60
2017-12-16T18:19:41.167Z,25.13
2017-12-16T18:22:08.681Z,26.50
2017-12-16T18:24:36.214Z,24.80
2017-12-16T18:27:03.790Z,23.47
2017-12-16T18:29:31.328Z,27.67
2017-12-16T18:31:58.891Z,24.90
2017-12-16T18:34:26.452Z,25.33
2017-12-16T18:36:53.998Z,24.77
2017-12-16T18:39:21.539Z,24.67
2017-12-16T18:41:49.058Z,26.47
2017-12-16T18:44:16.581Z,24.40
2017-12-16T18:46:44.102Z,27.53
2017-12-16T18:49:11.661Z,26.13
2017-12-16T18:51:39.198Z,28.27
2017-12-16T18:54:06.737Z,27.00
2017-12-16T18:56:34.262Z,24.77
2017-12-16T18:59:01.782Z,26.67
2017-12-16T19:01:29.309Z,31.30
2017-12-16T19:03:56.857Z,28.80
2017-12-16T19:06:24.454Z,30.03
2017-12-16T19:08:51.982Z,26.70
2017-12-16T19:11:19.513Z,24.97
2017-12-16T19:13:47.043Z,28.87
2017-12-16T19:16:14.629Z,26.53
2017-12-16T19:18:42.160Z,25.83
2017-12-16T19:21:09.689Z,25.07
2017-12-16T19:23:37.221Z,26.63
2017-12-16T19:26:04.777Z,28.93
2017-12-16T19:28:32.297Z,23.07
2017-12-16T19:30:59.824Z,26.30
2017-12-16T19:33:27.347Z,27.50
2017-12-16T19:35:54.908Z,25.77
2017-12-16T19:38:22.443Z,27.27
2017-12-16T19:40:49.962Z,24.57
2017-12-16T19:43:17.486Z,26.63
2017-12-16T19:45:45.036Z,25.87
2017-12-16T19:48:12.568Z,24.43
2017-12-16T19:50:40.098Z,28.53
2017-12-16T19:53:07.610Z,22.93
2017-12-16T19:55:35.190Z,28.30
2017-12-16T19:58:02.714Z,22.37
2017-12-16T20:00:30.260Z,27.70
2017-12-16T20:02:57.790Z,22.77
2017-12-16T20:05:25.317Z,24.87
2017-12-16T20:07:52.890Z,25.10
2017-12-16T20:10:20.427Z,24.73
2017-12-16T20:12:47.954Z,26.80
2017-12-16T20:15:15.494Z,23.40
2017-12-16T20:17:43.056Z,19.40
2017-12-16T20:20:10.584Z,24.47
2017-12-16T20:22:38.115Z,23.77
2017-12-16T20:25:05.644Z,21.20
2017-12-16T20:27:33.174Z,26.80
2017-12-16T20:30:00.722Z,22.63
2017-12-16T20:32:28.258Z,25.93
2017-12-16T20:34:55.784Z,23.13
2017-12-16T20:37:23.332Z,25.20
2017-12-16T20:39:50.865Z,24.23
2017-12-16T20:42:18.390Z,27.10
2017-12-16T20:44:45.913Z,23.97
2017-12-16T20:47:13.433Z,22.77
2017-12-16T20:49:40.958Z,28.20
2017-12-16T20:52:08.481Z,26.03
2017-12-16T20:54:36.011Z,23.60
2017-12-16T20:57:03.583Z,22.60
2017-12-16T20:59:31.096Z,28.57
2017-12-16T21:01:58.619Z,27.23
2017-12-16T21:04:26.166Z,26.23
2017-12-16T21:06:53.737Z,25.57
2017-12-16T21:09:21.296Z,26.37
2017-12-16T21:11:48.836Z,24.47
2017-12-16T21:14:16.370Z,25.37
2017-12-16T21:16:43.897Z,28.83
2017-12-16T21:19:11.425Z,27.67
2017-12-16T21:21:38.946Z,29.73
2017-12-16T21:24:06.479Z,27.07
2017-12-16T21:26:34.023Z,30.30
2017-12-16T21:29:01.646Z,25.90
2017-12-16T21:31:29.501Z,23.73
2017-12-16T21:33:57.176Z,27.33
2017-12-16T21:36:24.843Z,26.03
2017-12-16T21:38:52.536Z,27.20
2017-12-16T21:41:20.221Z,26.67
2017-12-16T21:43:47.947Z,25.20
2017-12-16T21:46:15.656Z,25.53
2017-12-16T21:48:43.499Z,24.27
2017-12-16T21:51:11.172Z,22.33
2017-12-16T21:53:38.790Z,25.70
2017-12-16T21:56:06.410Z,24.10
2017-12-16T21:58:33.982Z,23.83
2017-12-16T22:01:03.108Z,23.37
2017-12-16T22:03:32.618Z,24.47
2017-12-16T22:06:01.013Z,21.97
2017-12-16T22:08:29.218Z,22.73
2017-12-16T22:10:57.008Z,23.60
2017-12-16T22:13:24.743Z,22.53
2017-12-16T22:15:52.462Z,21.43
2017-12-16T22:18:20.291Z,25.27
2017-12-16T22:20:48.112Z,22.17
2017-12-16T22:23:15.759Z,22.83
2017-12-16T22:25:43.455Z,22.17
2017-12-16T22:28:11.051Z,22.93
2017-12-16T22:30:38.717Z,23.77
2017-12-16T22:33:06.322Z,22.97
2017-12-16T22:35:33.960Z,20.07
2017-12-16T22:38:01.534Z,22.10
2017-12-16T22:40:29.178Z,21.57
2017-12-16T22:42:56.992Z,23.47
2017-12-16T22:45:24.646Z,22.57
2017-12-16T22:47:52.310Z,25.07
2017-12-16T22:50:19.919Z,22.08
2017-12-16T22:52:47.552Z,20.70
2017-12-16T22:55:15.151Z,21.37
2017-12-16T22:57:42.689Z,20.33
2017-12-16T23:00:10.418Z,20.20
2017-12-16T23:02:38.094Z,19.57
2017-12-16T23:05:05.811Z,21.40
2017-12-16T23:07:33.598Z,19.67
2017-12-16T23:10:01.170Z,21.87
2017-12-16T23:12:28.837Z,20.60
2017-12-16T23:14:56.462Z,19.20
2017-12-16T23:17:24.106Z,19.33
2017-12-16T23:19:52.105Z,18.33
2017-12-16T23:22:22.459Z,18.27
2017-12-16T23:24:50.142Z,26.80
2017-12-16T23:27:17.690Z,21.37
2017-12-16T23:29:45.332Z,21.03
2017-12-16T23:32:14.299Z,18.40
2017-12-16T23:34:44.109Z,20.50
2017-12-16T23:37:15.272Z,15.13
2017-12-16T23:39:45.013Z,20.53
2017-12-16T23:42:14.362Z,18.90
2017-12-16T23:44:42.953Z,16.23
2017-12-16T23:47:10.801Z,13.60
2017-12-16T23:49:38.640Z,16.20
2017-12-16T23:52:06.400Z,17.80
2017-12-16T23:54:35.655Z,16.37
2017-12-16T23:57:04.875Z,14.13
